Mandelieu, France

2:24 PM CET on December 10, 2016 (GMT +0100)
Mandelieu | | Change Station

Elev 13 ft 43.54 °N, 6.95 °E | Updated 24 minutes ago

Clear
Clear
59 °F
Feels Like 59 °F
N
4
Wind Variable Wind from South

Today
High -- | Low -- °F
--% Chance of Precip.
Yesterday
High -- | Low -- °F
Precip. -- in
Pressure 30.33 in
Visibility -9999.0 miles
Clouds
Dew Point 46 °F
Humidity 63%
Rainfall 0.00 in
Snow Depth Not available.
7:54 AM 4:55 PM
Waxing Gibbous, 83% visible
METAR LFMD 101300Z AUTO 17003KT 140V200 CAVOK 15/08 Q1027 NOSIG
Pressure 30.33 in
Visibility -9999.0 miles
Clouds
Dew Point 46 °F
Humidity 63%
Rainfall 0.00 in
Snow Depth Not available.
7:54 AM 4:55 PM
Waxing Gibbous, 83% visible
METAR LFMD 101300Z AUTO 17003KT 140V200 CAVOK 15/08 Q1027 NOSIG

10-Day Weather Forecast

×

Almanac

Astronomy

Dec. 10, 2016 Rise Set
Actual Time
Civil Twilight
Nautical Twilight
Astronomical Twilight
Moon
Length of Visible Light
Length of Day
Tomorrow will be .
, % of the Moon is Illuminated

Today's Extremes

Country Highs Country Lows

Community

WunderPhotos

Upload Photos

1,956,540 photos uploaded!

WunderBlog® & News

Nearby

Air Quality

  Air Quality AQ Index Pollutant
Not available.

Snow Depth

Station Depth Elevation

Earthquake Activity

City Distance Mag. Time & Date
Minimum magnitude displayed is 2.5.

Coastal Water Temperatures

Place Temperature

Stations

Nearby Weather Stations

Station Location Temp. Windchill Dew Point Humidity Wind Precip. Elev Updated Type